sensor_id;sensor_type;location;lat;lon;timestamp;pressure;altitude;pressure_sealevel;temperature;humidity
71956;BME280;59829;50.562;6.258;2022-10-22T00:02:32;95296.03;;;13.76;100.00
71956;BME280;59829;50.562;6.258;2022-10-22T00:12:33;95283.97;;;13.84;100.00
71956;BME280;59829;50.562;6.258;2022-10-22T00:22:33;95283.81;;;13.78;100.00
71956;BME280;59829;50.562;6.258;2022-10-22T00:32:33;95274.50;;;13.85;100.00
71956;BME280;59829;50.562;6.258;2022-10-22T00:42:34;95271.59;;;13.80;100.00
71956;BME280;59829;50.562;6.258;2022-10-22T00:52:34;95283.50;;;13.81;100.00
71956;BME280;59829;50.562;6.258;2022-10-22T01:02:35;95289.13;;;13.84;100.00
71956;BME280;59829;50.562;6.258;2022-10-22T01:12:47;95287.78;;;14.14;100.00
71956;BME280;59829;50.562;6.258;2022-10-22T01:33:14;95277.34;;;14.16;100.00
71956;BME280;59829;50.562;6.258;2022-10-22T01:43:17;95286.00;;;14.07;100.00
71956;BME280;59829;50.562;6.258;2022-10-22T02:03:45;95291.72;;;14.35;100.00
71956;BME280;59829;50.562;6.258;2022-10-22T02:13:52;95291.44;;;14.46;100.00
71956;BME280;59829;50.562;6.258;2022-10-22T02:23:54;95288.31;;;14.34;100.00
71956;BME280;59829;50.562;6.258;2022-10-22T02:33:56;95290.31;;;14.48;100.00
71956;BME280;59829;50.562;6.258;2022-10-22T02:43:58;95267.28;;;14.47;100.00
71956;BME280;59829;50.562;6.258;2022-10-22T02:54:01;95260.44;;;14.22;100.00
71956;BME280;59829;50.562;6.258;2022-10-22T03:04:01;95278.56;;;14.04;100.00
71956;BME280;59829;50.562;6.258;2022-10-22T03:14:01;95292.88;;;13.90;100.00
71956;BME280;59829;50.562;6.258;2022-10-22T03:24:06;95295.88;;;13.77;100.00
71956;BME280;59829;50.562;6.258;2022-10-22T03:34:07;95302.44;;;13.72;100.00
71956;BME280;59829;50.562;6.258;2022-10-22T03:44:08;95320.66;;;13.52;100.00
71956;BME280;59829;50.562;6.258;2022-10-22T03:54:09;95314.41;;;13.29;100.00
71956;BME280;59829;50.562;6.258;2022-10-22T04:04:09;95346.72;;;13.14;100.00
71956;BME280;59829;50.562;6.258;2022-10-22T04:14:10;95352.41;;;12.99;100.00
71956;BME280;59829;50.562;6.258;2022-10-22T04:24:11;95342.50;;;13.05;100.00
71956;BME280;59829;50.562;6.258;2022-10-22T04:34:11;95351.59;;;12.81;100.00
71956;BME280;59829;50.562;6.258;2022-10-22T04:44:11;95347.81;;;12.85;100.00
71956;BME280;59829;50.562;6.258;2022-10-22T04:54:12;95366.50;;;12.78;100.00
71956;BME280;59829;50.562;6.258;2022-10-22T05:04:14;95363.78;;;12.79;100.00
71956;BME280;59829;50.562;6.258;2022-10-22T05:14:19;95365.88;;;12.48;100.00
71956;BME280;59829;50.562;6.258;2022-10-22T05:24:20;95381.09;;;12.32;100.00
71956;BME280;59829;50.562;6.258;2022-10-22T05:34:20;95388.22;;;12.20;100.00
71956;BME280;59829;50.562;6.258;2022-10-22T05:44:21;95397.28;;;12.15;100.00
71956;BME280;59829;50.562;6.258;2022-10-22T05:54:21;95398.44;;;11.93;100.00
71956;BME280;59829;50.562;6.258;2022-10-22T06:04:21;95407.59;;;12.05;100.00
71956;BME280;59829;50.562;6.258;2022-10-22T06:14:22;95421.47;;;12.12;100.00
71956;BME280;59829;50.562;6.258;2022-10-22T06:24:23;95412.59;;;12.06;100.00
71956;BME280;59829;50.562;6.258;2022-10-22T06:34:23;95422.06;;;12.06;100.00
71956;BME280;59829;50.562;6.258;2022-10-22T06:44:24;95432.25;;;12.25;100.00
71956;BME280;59829;50.562;6.258;2022-10-22T06:54:24;95426.81;;;12.28;100.00
71956;BME280;59829;50.562;6.258;2022-10-22T07:04:24;95434.22;;;12.31;100.00
71956;BME280;59829;50.562;6.258;2022-10-22T07:14:25;95455.00;;;12.48;100.00
71956;BME280;59829;50.562;6.258;2022-10-22T07:24:25;95466.19;;;12.56;100.00
71956;BME280;59829;50.562;6.258;2022-10-22T07:34:26;95472.00;;;12.86;100.00
71956;BME280;59829;50.562;6.258;2022-10-22T07:44:26;95481.47;;;12.85;100.00
71956;BME280;59829;50.562;6.258;2022-10-22T07:54:26;95499.50;;;13.03;100.00
71956;BME280;59829;50.562;6.258;2022-10-22T08:04:26;95505.06;;;13.26;100.00
71956;BME280;59829;50.562;6.258;2022-10-22T08:14:27;95522.69;;;13.21;100.00
71956;BME280;59829;50.562;6.258;2022-10-22T08:24:27;95531.44;;;13.28;100.00
71956;BME280;59829;50.562;6.258;2022-10-22T08:34:28;95538.00;;;13.13;100.00
71956;BME280;59829;50.562;6.258;2022-10-22T08:44:53;95573.84;;;13.14;100.00
71956;BME280;59829;50.562;6.258;2022-10-22T08:54:59;95559.38;;;13.23;100.00
71956;BME280;59829;50.562;6.258;2022-10-22T09:05:10;95570.84;;;13.28;100.00
71956;BME280;59829;50.562;6.258;2022-10-22T09:15:16;95581.06;;;13.38;100.00
71956;BME280;59829;50.562;6.258;2022-10-22T09:25:22;95593.53;;;13.78;100.00
71956;BME280;59829;50.562;6.258;2022-10-22T09:35:24;95593.03;;;13.75;100.00
71956;BME280;59829;50.562;6.258;2022-10-22T09:45:24;95592.38;;;13.91;100.00
71956;BME280;59829;50.562;6.258;2022-10-22T09:55:25;95608.72;;;14.43;100.00
71956;BME280;59829;50.562;6.258;2022-10-22T10:05:33;95629.75;;;14.56;100.00
71956;BME280;59829;50.562;6.258;2022-10-22T10:15:38;95631.97;;;14.33;100.00
71956;BME280;59829;50.562;6.258;2022-10-22T10:35:57;95661.75;;;14.28;100.00
71956;BME280;59829;50.562;6.258;2022-10-22T10:46:17;95670.44;;;14.27;100.00
71956;BME280;59829;50.562;6.258;2022-10-22T10:56:43;95668.22;;;14.32;98.66
71956;BME280;59829;50.562;6.258;2022-10-22T11:06:44;95645.56;;;15.55;87.80
71956;BME280;59829;50.562;6.258;2022-10-22T11:16:48;95671.56;;;15.20;89.70
71956;BME280;59829;50.562;6.258;2022-10-22T11:27:01;95671.53;;;15.12;92.03
71956;BME280;59829;50.562;6.258;2022-10-22T11:37:05;95661.94;;;14.96;96.30
71956;BME280;59829;50.562;6.258;2022-10-22T11:47:17;95658.84;;;15.26;96.04
71956;BME280;59829;50.562;6.258;2022-10-22T11:57:25;95643.63;;;15.49;95.42
71956;BME280;59829;50.562;6.258;2022-10-22T12:07:40;95643.22;;;15.62;92.98
71956;BME280;59829;50.562;6.258;2022-10-22T12:17:47;95640.06;;;16.57;87.08
71956;BME280;59829;50.562;6.258;2022-10-22T12:27:53;95633.38;;;18.13;81.17
71956;BME280;59829;50.562;6.258;2022-10-22T12:37:56;95620.72;;;18.56;75.74
71956;BME280;59829;50.562;6.258;2022-10-22T12:47:58;95608.94;;;19.93;67.51
71956;BME280;59829;50.562;6.258;2022-10-22T12:58:04;95608.34;;;19.54;66.32
71956;BME280;59829;50.562;6.258;2022-10-22T13:08:16;95604.56;;;20.36;62.59
71956;BME280;59829;50.562;6.258;2022-10-22T13:18:19;95601.63;;;22.04;58.02
71956;BME280;59829;50.562;6.258;2022-10-22T13:28:21;95595.59;;;21.83;55.92
71956;BME280;59829;50.562;6.258;2022-10-22T13:38:25;95592.66;;;20.27;60.34
71956;BME280;59829;50.562;6.258;2022-10-22T13:48:27;95615.88;;;18.90;66.34
71956;BME280;59829;50.562;6.258;2022-10-22T13:58:28;95601.19;;;19.27;65.92
71956;BME280;59829;50.562;6.258;2022-10-22T14:08:29;95581.81;;;24.79;49.63
71956;BME280;59829;50.562;6.258;2022-10-22T14:18:29;95601.25;;;22.00;54.34
71956;BME280;59829;50.562;6.258;2022-10-22T14:28:35;95592.41;;;22.01;54.96
71956;BME280;59829;50.562;6.258;2022-10-22T14:38:35;95603.03;;;21.32;58.20
71956;BME280;59829;50.562;6.258;2022-10-22T14:48:36;95597.53;;;21.61;55.84
71956;BME280;59829;50.562;6.258;2022-10-22T14:58:36;95605.66;;;21.04;57.36
71956;BME280;59829;50.562;6.258;2022-10-22T15:08:36;95617.06;;;19.83;61.68
71956;BME280;59829;50.562;6.258;2022-10-22T15:18:37;95633.56;;;18.72;64.71
71956;BME280;59829;50.562;6.258;2022-10-22T15:28:38;95642.03;;;18.28;69.49
71956;BME280;59829;50.562;6.258;2022-10-22T15:38:39;95635.91;;;18.21;68.14
71956;BME280;59829;50.562;6.258;2022-10-22T15:48:39;95638.53;;;18.36;67.33
71956;BME280;59829;50.562;6.258;2022-10-22T15:58:40;95638.47;;;17.67;70.87
71956;BME280;59829;50.562;6.258;2022-10-22T16:08:40;95641.88;;;17.29;72.27
71956;BME280;59829;50.562;6.258;2022-10-22T16:18:41;95646.88;;;16.58;76.96
71956;BME280;59829;50.562;6.258;2022-10-22T16:28:42;95653.63;;;16.11;80.78
71956;BME280;59829;50.562;6.258;2022-10-22T16:38:43;95651.31;;;15.67;84.36
71956;BME280;59829;50.562;6.258;2022-10-22T16:48:53;95664.63;;;15.20;88.30
71956;BME280;59829;50.562;6.258;2022-10-22T16:58:55;95676.75;;;14.94;92.02
71956;BME280;59829;50.562;6.258;2022-10-22T17:08:56;95691.69;;;14.64;95.86
71956;BME280;59829;50.562;6.258;2022-10-22T17:18:56;95704.06;;;14.25;97.15
71956;BME280;59829;50.562;6.258;2022-10-22T17:28:57;95703.31;;;13.97;100.00
71956;BME280;59829;50.562;6.258;2022-10-22T17:38:59;95704.53;;;13.75;100.00
71956;BME280;59829;50.562;6.258;2022-10-22T17:49:05;95710.09;;;13.43;100.00
71956;BME280;59829;50.562;6.258;2022-10-22T17:59:08;95704.06;;;13.25;100.00
71956;BME280;59829;50.562;6.258;2022-10-22T18:09:13;95709.78;;;13.09;100.00
71956;BME280;59829;50.562;6.258;2022-10-22T18:19:17;95714.16;;;12.89;100.00
71956;BME280;59829;50.562;6.258;2022-10-22T18:29:18;95701.50;;;12.68;100.00
71956;BME280;59829;50.562;6.258;2022-10-22T18:39:19;95720.69;;;12.55;100.00
71956;BME280;59829;50.562;6.258;2022-10-22T18:49:20;95722.84;;;12.30;100.00
71956;BME280;59829;50.562;6.258;2022-10-22T18:59:22;95724.91;;;12.36;100.00
71956;BME280;59829;50.562;6.258;2022-10-22T19:09:24;95725.84;;;12.16;100.00
71956;BME280;59829;50.562;6.258;2022-10-22T19:19:25;95721.50;;;12.26;100.00
71956;BME280;59829;50.562;6.258;2022-10-22T19:29:25;95731.78;;;12.26;100.00
71956;BME280;59829;50.562;6.258;2022-10-22T19:39:25;95727.47;;;12.36;100.00
71956;BME280;59829;50.562;6.258;2022-10-22T19:49:26;95732.31;;;12.30;100.00
71956;BME280;59829;50.562;6.258;2022-10-22T19:59:26;95726.91;;;12.43;100.00
71956;BME280;59829;50.562;6.258;2022-10-22T20:09:26;95737.72;;;12.46;100.00
71956;BME280;59829;50.562;6.258;2022-10-22T20:19:26;95723.41;;;12.34;100.00
71956;BME280;59829;50.562;6.258;2022-10-22T20:29:28;95737.47;;;12.20;100.00
71956;BME280;59829;50.562;6.258;2022-10-22T20:39:28;95746.63;;;12.13;100.00
71956;BME280;59829;50.562;6.258;2022-10-22T20:49:29;95765.41;;;12.04;100.00
71956;BME280;59829;50.562;6.258;2022-10-22T20:59:29;95755.53;;;11.99;100.00
71956;BME280;59829;50.562;6.258;2022-10-22T21:09:32;95774.56;;;11.97;100.00
71956;BME280;59829;50.562;6.258;2022-10-22T21:19:33;95757.16;;;12.10;100.00
71956;BME280;59829;50.562;6.258;2022-10-22T21:29:34;95766.09;;;12.06;100.00
71956;BME280;59829;50.562;6.258;2022-10-22T21:39:34;95749.34;;;12.21;100.00
71956;BME280;59829;50.562;6.258;2022-10-22T21:49:34;95734.34;;;12.26;100.00
71956;BME280;59829;50.562;6.258;2022-10-22T21:59:35;95733.66;;;12.05;100.00
71956;BME280;59829;50.562;6.258;2022-10-22T22:09:35;95735.00;;;12.09;100.00
71956;BME280;59829;50.562;6.258;2022-10-22T22:19:37;95733.63;;;11.86;100.00
71956;BME280;59829;50.562;6.258;2022-10-22T22:29:38;95722.75;;;11.72;100.00
71956;BME280;59829;50.562;6.258;2022-10-22T22:39:38;95717.56;;;11.53;100.00
71956;BME280;59829;50.562;6.258;2022-10-22T22:49:38;95726.94;;;11.43;100.00
71956;BME280;59829;50.562;6.258;2022-10-22T22:59:38;95731.03;;;11.45;100.00
71956;BME280;59829;50.562;6.258;2022-10-22T23:09:39;95733.97;;;11.41;100.00
71956;BME280;59829;50.562;6.258;2022-10-22T23:19:39;95731.88;;;11.56;100.00
71956;BME280;59829;50.562;6.258;2022-10-22T23:29:40;95721.66;;;11.65;100.00
71956;BME280;59829;50.562;6.258;2022-10-22T23:39:40;95712.16;;;11.56;100.00
71956;BME280;59829;50.562;6.258;2022-10-22T23:49:40;95702.75;;;11.66;100.00
71956;BME280;59829;50.562;6.258;2022-10-22T23:59:40;95693.84;;;11.70;100.00
